Time;durP1;ratioP1;P1;durP2;ratioP2;P2;SDS_P1;SDS_P2;PMS_P1;PMS_P2;Temp;Humidity;BMP_temperature;BMP_pressure;BME280_temperature;BME280_humidity;BME280_pressure;Samples;Min_cycle;Max_cycle;Signal;HPM_P1;HPM_P2
2021/07/28 00:00:39;;;;;;;15.50;9.57;;;15.50;1.00;;;;;;5092814;28;20257;-65
2021/07/28 00:03:06;;;;;;;12.03;9.03;;;15.50;1.00;;;;;;5092589;28;20223;-65
2021/07/28 00:05:33;;;;;;;13.53;9.20;;;15.50;1.00;;;;;;5092307;28;20204;-64
2021/07/28 00:08:01;;;;;;;15.00;9.37;;;15.50;1.00;;;;;;5092765;28;20265;-65
2021/07/28 00:10:28;;;;;;;11.43;9.23;;;15.40;1.00;;;;;;5092675;28;20216;-65
2021/07/28 00:12:54;;;;;;;15.40;10.43;;;15.40;1.00;;;;;;5092627;28;20253;-65
2021/07/28 00:15:21;;;;;;;14.33;9.37;;;15.40;1.00;;;;;;5092303;28;20204;-64
2021/07/28 00:17:50;;;;;;;14.00;10.03;;;15.40;1.00;;;;;;5092114;28;20639;-65
2021/07/28 00:20:23;;;;;;;13.73;9.70;;;15.40;1.00;;;;;;5092333;28;20236;-64
2021/07/28 00:23:14;;;;;;;12.90;8.97;;;15.40;1.00;;;;;;5092474;28;20253;-64
2021/07/28 00:25:43;;;;;;;13.40;9.57;;;15.40;1.00;;;;;;5092459;28;20238;-64
2021/07/28 00:28:10;;;;;;;12.87;10.00;;;15.40;1.00;;;;;;5092200;28;20726;-64
2021/07/28 00:30:37;;;;;;;14.87;10.13;;;15.50;1.00;;;;;;5092546;28;20220;-65
2021/07/28 00:33:04;;;;;;;10.77;8.87;;;15.40;1.00;;;;;;5093389;28;20200;-65
2021/07/28 00:35:30;;;;;;;15.63;8.83;;;15.50;1.00;;;;;;5092901;28;20212;-64
2021/07/28 00:38:02;;;;;;;11.50;9.57;;;15.50;1.00;;;;;;5092465;28;20626;-65
2021/07/28 00:40:29;;;;;;;13.83;9.40;;;15.50;1.00;;;;;;5093754;28;20282;-65
2021/07/28 00:43:10;;;;;;;13.20;9.37;;;15.50;1.00;;;;;;5093685;28;20220;-64
2021/07/28 00:45:37;;;;;;;14.17;9.90;;;15.50;1.00;;;;;;5092974;28;20649;-65
2021/07/28 00:48:03;;;;;;;14.87;8.90;;;15.50;1.00;;;;;;5092825;28;20257;-65
2021/07/28 00:50:30;;;;;;;12.40;9.00;;;15.50;1.00;;;;;;5092199;28;20224;-65
2021/07/28 00:53:01;;;;;;;13.73;8.83;;;15.50;1.00;;;;;;5091932;28;20200;-65
2021/07/28 00:55:27;;;;;;;13.90;9.70;;;15.60;1.00;;;;;;5091977;28;20291;-65
2021/07/28 00:57:54;;;;;;;11.73;8.70;;;15.60;1.00;;;;;;5091737;28;20208;-65
2021/07/28 01:00:22;;;;;;;14.57;8.97;;;15.60;1.00;;;;;;5092115;28;20204;-65
2021/07/28 01:02:49;;;;;;;15.23;9.53;;;15.60;1.00;;;;;;5092010;28;20231;-65
2021/07/28 01:05:16;;;;;;;11.73;8.60;;;15.60;1.00;;;;;;5091746;28;20204;-65
2021/07/28 01:07:42;;;;;;;12.30;8.60;;;15.60;1.00;;;;;;5091966;28;20200;-64
2021/07/28 01:10:10;;;;;;;13.40;8.00;;;15.60;1.00;;;;;;5091652;28;20247;-65
2021/07/28 01:12:42;;;;;;;12.60;8.80;;;15.60;1.00;;;;;;5092038;28;20204;-64
2021/07/28 01:15:09;;;;;;;14.10;8.20;;;15.70;99.90;;;;;;5091727;28;20200;-64
2021/07/28 01:17:37;;;;;;;13.80;8.43;;;15.70;99.90;;;;;;5091989;28;20638;-65
2021/07/28 01:20:08;;;;;;;14.97;8.40;;;15.70;99.90;;;;;;5091724;28;20274;-65
2021/07/28 01:22:35;;;;;;;11.80;8.33;;;15.70;99.90;;;;;;5091645;28;20745;-65
2021/07/28 01:25:03;;;;;;;12.97;8.50;;;15.70;99.90;;;;;;5091341;28;20204;-65
2021/07/28 01:27:31;;;;;;;13.47;9.03;;;15.70;99.90;;;;;;5091747;28;20216;-65
2021/07/28 01:29:58;;;;;;;12.60;8.13;;;15.70;99.90;;;;;;5091590;28;20289;-64
2021/07/28 01:32:25;;;;;;;11.30;8.50;;;15.80;99.90;;;;;;5095430;28;20253;-65
2021/07/28 01:34:53;;;;;;;10.80;8.27;;;15.70;99.90;;;;;;5095289;28;20208;-65
2021/07/28 01:37:21;;;;;;;10.63;7.90;;;15.80;99.90;;;;;;5095263;28;20258;-65
2021/07/28 01:39:47;;;;;;;9.60;8.33;;;15.80;99.90;;;;;;5095598;28;20228;-65
2021/07/28 01:42:15;;;;;;;11.60;8.03;;;15.80;99.90;;;;;;5095420;28;20220;-65
2021/07/28 01:44:43;;;;;;;10.47;8.40;;;15.70;99.90;;;;;;5096039;28;20270;-65
2021/07/28 01:47:10;;;;;;;14.63;9.07;;;15.80;99.90;;;;;;5095263;28;20209;-65
2021/07/28 01:49:36;;;;;;;11.03;8.40;;;15.70;99.90;;;;;;5095096;28;20735;-65
2021/07/28 01:52:03;;;;;;;14.53;8.97;;;15.70;96.30;;;;;;5095309;28;20291;-65
2021/07/28 01:54:30;;;;;;;11.17;8.27;;;15.80;22.50;;;;;;5095179;28;20216;-64
2021/07/28 01:56:56;;;;;;;12.53;8.77;;;15.80;1.00;;;;;;5095154;28;20207;-65
2021/07/28 01:59:25;;;;;;;14.57;8.90;;;15.80;1.00;;;;;;5095062;28;20647;-64
2021/07/28 02:01:52;;;;;;;10.63;8.60;;;15.80;1.00;;;;;;5095032;28;20577;-65
2021/07/28 02:04:19;;;;;;;14.50;8.40;;;15.80;1.00;;;;;;5094579;28;20208;-64
2021/07/28 02:06:45;;;;;;;14.27;9.20;;;15.80;1.00;;;;;;5095156;28;20627;-65
2021/07/28 02:09:12;;;;;;;14.07;9.20;;;15.80;99.90;;;;;;5094951;28;20253;-64
2021/07/28 02:11:38;;;;;;;13.00;9.00;;;15.80;99.90;;;;;;5094965;28;20262;-65
2021/07/28 02:14:05;;;;;;;12.83;9.17;;;15.80;99.90;;;;;;5094431;28;20245;-64
2021/07/28 02:16:33;;;;;;;12.67;8.70;;;15.80;99.90;;;;;;5094682;28;20208;-66
2021/07/28 02:18:59;;;;;;;13.70;8.73;;;15.80;99.90;;;;;;5094351;28;20236;-65
2021/07/28 02:21:26;;;;;;;11.37;9.10;;;15.80;99.90;;;;;;5094557;28;20208;-64
2021/07/28 02:23:53;;;;;;;12.90;9.70;;;15.80;99.90;;;;;;5094419;28;20224;-65
2021/07/28 02:26:19;;;;;;;17.43;9.23;;;15.80;99.90;;;;;;5094588;28;20204;-65
2021/07/28 02:28:46;;;;;;;14.00;9.33;;;15.80;99.90;;;;;;5094627;28;20266;-65
2021/07/28 02:31:12;;;;;;;12.87;8.80;;;15.80;99.90;;;;;;5094439;28;20219;-65
2021/07/28 02:33:40;;;;;;;13.40;8.80;;;15.80;99.90;;;;;;5094104;28;20254;-65
2021/07/28 02:36:07;;;;;;;13.33;9.30;;;15.80;99.90;;;;;;5094513;28;20549;-65
2021/07/28 02:38:34;;;;;;;11.03;8.80;;;15.70;99.90;;;;;;5094444;28;20273;-65
2021/07/28 02:41:00;;;;;;;16.07;9.87;;;15.70;99.90;;;;;;5093953;28;20205;-64
2021/07/28 02:43:27;;;;;;;13.93;9.60;;;15.70;99.90;;;;;;5094071;28;20220;-65
2021/07/28 02:45:54;;;;;;;13.87;8.50;;;15.70;99.90;;;;;;5094048;28;20207;-65
2021/07/28 02:48:20;;;;;;;15.47;9.23;;;15.70;1.00;;;;;;5094256;28;20224;-65
2021/07/28 02:50:48;;;;;;;12.80;9.57;;;15.70;99.90;;;;;;5094122;28;20208;-64
2021/07/28 02:53:15;;;;;;;15.53;10.37;;;15.70;1.00;;;;;;5094130;28;20246;-64
2021/07/28 02:55:41;;;;;;;12.73;9.73;;;15.60;1.00;;;;;;5093733;28;20204;-65
2021/07/28 02:58:08;;;;;;;13.57;9.50;;;15.70;1.00;;;;;;5093642;28;20617;-64
2021/07/28 03:00:35;;;;;;;13.70;9.97;;;15.70;1.00;;;;;;5094008;28;20200;-64
2021/07/28 03:03:01;;;;;;;13.67;9.37;;;15.70;1.00;;;;;;5093533;28;20257;-64
2021/07/28 03:05:28;;;;;;;15.43;10.10;;;15.70;1.00;;;;;;5093781;28;20211;-65
2021/07/28 03:07:56;;;;;;;12.33;10.10;;;15.70;1.00;;;;;;5093709;28;20272;-65
2021/07/28 03:10:23;;;;;;;13.97;10.13;;;15.70;99.90;;;;;;5093755;28;20204;-65
2021/07/28 03:12:49;;;;;;;15.77;10.77;;;15.70;99.90;;;;;;5093541;28;20577;-64
2021/07/28 03:15:16;;;;;;;14.87;10.37;;;15.70;99.90;;;;;;5093357;28;20208;-65
2021/07/28 03:17:43;;;;;;;14.03;9.57;;;15.80;1.00;;;;;;5093698;28;20234;-65
2021/07/28 03:20:10;;;;;;;17.07;10.23;;;15.80;1.00;;;;;;5093736;28;20220;-65
2021/07/28 03:22:37;;;;;;;15.13;10.77;;;15.80;1.00;;;;;;5093477;28;20668;-65
2021/07/28 03:25:06;;;;;;;13.57;10.60;;;15.70;1.00;;;;;;5093266;28;20200;-64
2021/07/28 03:27:32;;;;;;;17.00;10.90;;;15.70;1.00;;;;;;5093625;28;20676;-65
2021/07/28 03:29:59;;;;;;;14.87;10.30;;;15.70;1.00;;;;;;5093407;28;20236;-65
2021/07/28 03:32:26;;;;;;;14.87;10.43;;;15.70;1.00;;;;;;5093495;28;20208;-65
2021/07/28 03:34:52;;;;;;;16.23;11.00;;;15.70;1.00;;;;;;5093114;28;20212;-65
2021/07/28 03:37:19;;;;;;;15.97;10.77;;;15.70;29.40;;;;;;5093455;28;20205;-66
2021/07/28 03:39:46;;;;;;;14.13;10.80;;;15.60;99.90;;;;;;5093193;28;20225;-65
2021/07/28 03:42:14;;;;;;;16.17;11.13;;;15.60;99.90;;;;;;5092953;28;20625;-65
2021/07/28 03:44:40;;;;;;;13.60;10.47;;;15.60;99.90;;;;;;5092771;28;20289;-65
2021/07/28 03:47:07;;;;;;;15.83;10.30;;;15.60;99.90;;;;;;5093247;28;20212;-65
2021/07/28 03:49:33;;;;;;;12.43;10.47;;;15.60;99.90;;;;;;5093135;28;20282;-65
2021/07/28 03:52:00;;;;;;;13.43;10.80;;;15.60;99.90;;;;;;5092984;28;20208;-64
2021/07/28 03:54:27;;;;;;;14.57;9.80;;;15.60;99.90;;;;;;5092032;28;20353;-65
2021/07/28 03:56:53;;;;;;;12.50;10.50;;;15.50;99.90;;;;;;5092642;28;20269;-64
2021/07/28 03:59:21;;;;;;;13.27;10.43;;;15.50;1.00;;;;;;5092970;28;20297;-65
2021/07/28 04:01:48;;;;;;;15.53;10.37;;;15.60;99.90;;;;;;5093004;28;20204;-65
2021/07/28 04:04:16;;;;;;;16.87;10.50;;;15.50;1.00;;;;;;5092567;28;20224;-64
2021/07/28 04:06:43;;;;;;;15.80;10.97;;;15.50;1.00;;;;;;5092723;28;20249;-64
2021/07/28 04:09:09;;;;;;;15.20;11.30;;;15.60;1.00;;;;;;5092552;28;20576;-65
2021/07/28 04:11:36;;;;;;;15.40;10.47;;;15.60;1.00;;;;;;5092748;28;20257;-64
2021/07/28 04:14:03;;;;;;;16.83;11.40;;;15.60;1.00;;;;;;5093140;28;20204;-65
2021/07/28 04:16:31;;;;;;;16.43;11.50;;;15.70;1.00;;;;;;5092729;28;20230;-64
2021/07/28 04:18:57;;;;;;;16.30;10.13;;;15.70;1.00;;;;;;5092699;28;20300;-64
2021/07/28 04:21:24;;;;;;;12.83;10.67;;;15.80;99.90;;;;;;5091231;28;20257;-65
2021/07/28 04:23:50;;;;;;;14.80;11.10;;;15.80;99.90;;;;;;5088982;28;20270;-65
2021/07/28 04:26:17;;;;;;;13.60;10.80;;;15.80;99.90;;;;;;5092098;28;20258;-65
2021/07/28 04:28:44;;;;;;;18.50;11.77;;;15.90;99.90;;;;;;5092723;28;20254;-65
2021/07/28 04:31:10;;;;;;;12.83;10.40;;;15.90;99.90;;;;;;5099695;28;20215;-65
2021/07/28 04:33:38;;;;;;;12.33;9.90;;;16.00;99.90;;;;;;5102750;28;20226;-66
2021/07/28 04:36:05;;;;;;;14.93;10.70;;;16.00;64.40;;;;;;5098567;28;20204;-65
2021/07/28 04:38:32;;;;;;;14.40;10.83;;;16.00;1.00;;;;;;5092593;28;20220;-65
2021/07/28 04:40:58;;;;;;;12.40;10.57;;;16.10;1.00;;;;;;5098068;28;20555;-65
2021/07/28 04:43:25;;;;;;;14.00;10.20;;;16.10;99.90;;;;;;5107289;28;20231;-65
2021/07/28 04:45:58;;;;;;;12.37;10.53;;;16.20;99.90;;;;;;5098633;28;20368;-65
2021/07/28 04:48:25;;;;;;;14.30;10.13;;;16.20;99.90;;;;;;5094034;28;20224;-65
2021/07/28 04:50:54;;;;;;;14.70;9.87;;;16.20;99.90;;;;;;5092237;28;20685;-65
2021/07/28 04:53:20;;;;;;;15.07;10.60;;;16.20;1.00;;;;;;5091684;28;20208;-65
2021/07/28 04:55:52;;;;;;;14.23;9.67;;;16.20;99.90;;;;;;5092116;28;20215;-65
2021/07/28 04:58:19;;;;;;;13.50;9.50;;;16.20;99.90;;;;;;5092102;28;20228;-65
2021/07/28 05:00:46;;;;;;;12.57;9.90;;;16.30;48.70;;;;;;5091990;28;20211;-65
2021/07/28 05:03:12;;;;;;;12.63;9.63;;;16.30;99.90;;;;;;5091807;28;20220;-65
2021/07/28 05:05:39;;;;;;;14.00;9.97;;;16.30;1.00;;;;;;5094274;28;20208;-64
2021/07/28 05:08:07;;;;;;;14.63;9.60;;;16.30;99.90;;;;;;5095812;28;20208;-65
2021/07/28 05:10:33;;;;;;;16.50;9.70;;;16.30;99.90;;;;;;5092782;28;20200;-63
2021/07/28 05:13:00;;;;;;;13.53;9.63;;;16.40;99.90;;;;;;5096100;28;20212;-63
2021/07/28 05:15:27;;;;;;;11.73;9.03;;;16.40;99.90;;;;;;5095719;28;20250;-64
2021/07/28 05:17:53;;;;;;;11.77;9.20;;;16.50;99.90;;;;;;5095633;28;20254;-63
2021/07/28 05:20:20;;;;;;;11.80;8.90;;;16.50;99.90;;;;;;5095750;28;20257;-64
2021/07/28 05:22:47;;;;;;;13.70;9.13;;;16.50;99.90;;;;;;5091592;28;20214;-62
2021/07/28 05:25:16;;;;;;;12.97;9.13;;;16.60;99.90;;;;;;5085900;28;20228;-63
2021/07/28 05:27:42;;;;;;;11.40;8.77;;;16.60;1.00;;;;;;5095317;28;20257;-63
2021/07/28 05:30:10;;;;;;;15.30;9.37;;;16.60;99.90;;;;;;5095009;28;20284;-64
2021/07/28 05:32:37;;;;;;;12.40;9.23;;;16.60;1.00;;;;;;5095046;28;20839;-63
2021/07/28 05:35:04;;;;;;;12.23;9.07;;;16.70;99.90;;;;;;5094536;28;20238;-65
2021/07/28 05:37:31;;;;;;;10.70;8.13;;;16.70;1.00;;;;;;5095144;28;20212;-65
2021/07/28 05:39:58;;;;;;;13.57;8.73;;;16.70;1.00;;;;;;5094947;28;20228;-66
2021/07/28 05:42:25;;;;;;;11.20;8.73;;;16.70;1.00;;;;;;5095006;28;20265;-64
2021/07/28 05:44:52;;;;;;;12.73;8.87;;;16.80;99.90;;;;;;5094337;28;20714;-65
2021/07/28 05:47:19;;;;;;;12.13;7.77;;;16.90;99.90;;;;;;5094927;28;20204;-65
2021/07/28 05:49:45;;;;;;;9.80;8.23;;;17.00;99.90;;;;;;5094570;28;20766;-66
2021/07/28 05:52:12;;;;;;;11.07;8.87;;;17.10;99.90;;;;;;5094932;28;20204;-66
2021/07/28 05:54:39;;;;;;;9.40;7.70;;;17.20;67.00;;;;;;5094239;28;20208;-64
2021/07/28 05:57:06;;;;;;;11.23;7.60;;;17.20;1.00;;;;;;5094960;28;20234;-65
2021/07/28 05:59:34;;;;;;;10.93;8.40;;;17.30;1.00;;;;;;5094661;28;20224;-65
2021/07/28 06:02:00;;;;;;;9.87;7.47;;;17.20;99.90;;;;;;5094366;28;20794;-64
2021/07/28 06:04:27;;;;;;;13.00;8.37;;;17.30;99.90;;;;;;5094271;28;20639;-64
2021/07/28 06:06:53;;;;;;;12.43;7.83;;;17.30;99.90;;;;;;5094720;28;20242;-66
2021/07/28 06:09:20;;;;;;;11.30;7.53;;;17.40;42.40;;;;;;5094748;28;20220;-65
2021/07/28 06:11:47;;;;;;;13.27;7.87;;;17.50;32.20;;;;;;5094673;28;20208;-65
2021/07/28 06:14:13;;;;;;;9.10;6.97;;;17.60;96.90;;;;;;5094006;28;20204;-65
2021/07/28 06:16:41;;;;;;;9.30;7.33;;;17.60;99.90;;;;;;5093641;28;20215;-63
2021/07/28 06:19:08;;;;;;;9.80;7.23;;;17.60;99.90;;;;;;5094386;28;20224;-64
2021/07/28 06:21:36;;;;;;;10.40;7.60;;;17.60;99.90;;;;;;5094075;28;20741;-64
2021/07/28 06:24:02;;;;;;;11.00;7.23;;;17.50;1.00;;;;;;5093638;28;20590;-64
2021/07/28 06:26:29;;;;;;;12.67;7.47;;;17.60;99.90;;;;;;5094188;28;20208;-65
2021/07/28 06:28:56;;;;;;;8.40;7.43;;;17.70;11.20;;;;;;5093725;28;20277;-63
2021/07/28 06:31:23;;;;;;;10.43;7.10;;;17.80;44.70;;;;;;5094124;28;20575;-64
2021/07/28 06:33:51;;;;;;;8.67;6.90;;;17.80;99.90;;;;;;5093423;28;20204;-63
2021/07/28 06:36:17;;;;;;;9.20;7.03;;;17.90;62.10;;;;;;5094155;28;20207;-64
2021/07/28 06:38:44;;;;;;;8.43;6.60;;;17.90;96.50;;;;;;5094274;28;20634;-64
2021/07/28 06:41:11;;;;;;;9.93;7.10;;;17.90;99.90;;;;;;5093663;28;20303;-64
2021/07/28 06:43:37;;;;;;;10.20;7.03;;;18.00;99.90;;;;;;5092470;28;20204;-64
2021/07/28 06:46:04;;;;;;;12.40;7.20;;;18.00;1.00;;;;;;5093938;28;20208;-64
2021/07/28 06:48:31;;;;;;;11.07;6.57;;;18.00;99.90;;;;;;5093579;28;20243;-64
2021/07/28 06:50:59;;;;;;;9.03;6.20;;;18.10;99.90;;;;;;5093859;28;20204;-64
2021/07/28 06:53:25;;;;;;;9.47;6.43;;;18.40;99.90;;;;;;5093350;28;20296;-65
2021/07/28 06:55:52;;;;;;;8.53;6.10;;;18.50;99.90;;;;;;5093549;28;20215;-64
2021/07/28 06:58:19;;;;;;;7.30;6.00;;;18.60;1.00;;;;;;5093295;28;20322;-66
2021/07/28 07:00:46;;;;;;;9.07;6.03;;;18.60;1.00;;;;;;5093672;28;20199;-66
2021/07/28 07:03:13;;;;;;;8.43;6.20;;;18.60;1.00;;;;;;5093323;28;20645;-67
2021/07/28 07:05:39;;;;;;;9.60;6.57;;;18.50;1.00;;;;;;5093062;28;20234;-67
2021/07/28 07:08:09;;;;;;;7.07;6.03;;;18.40;99.90;;;;;;5093016;28;20204;-66
2021/07/28 07:10:36;;;;;;;9.10;6.63;;;18.30;94.30;;;;;;5093170;28;20204;-66
2021/07/28 07:13:05;;;;;;;10.23;6.13;;;18.40;99.90;;;;;;5093292;28;20220;-66
2021/07/28 07:15:31;;;;;;;8.60;6.73;;;18.30;99.90;;;;;;5093077;28;20288;-66
2021/07/28 07:17:58;;;;;;;9.60;6.50;;;18.30;48.80;;;;;;5093268;28;20207;-65
2021/07/28 07:20:25;;;;;;;10.97;7.03;;;18.20;99.90;;;;;;5092852;28;20212;-65
2021/07/28 07:22:51;;;;;;;7.80;6.23;;;18.20;1.00;;;;;;5092863;28;20212;-65
2021/07/28 07:25:20;;;;;;;9.90;6.50;;;18.00;99.90;;;;;;5092411;28;20219;-66
2021/07/28 07:27:47;;;;;;;9.23;6.50;;;17.90;99.90;;;;;;5093325;28;20588;-64
2021/07/28 07:30:14;;;;;;;10.90;7.43;;;17.80;1.00;;;;;;5092774;28;20243;-64
2021/07/28 07:32:41;;;;;;;11.17;7.37;;;17.60;1.00;;;;;;5092657;28;20608;-64
2021/07/28 07:35:08;;;;;;;12.03;7.90;;;17.60;99.90;;;;;;5092540;28;20595;-64
2021/07/28 07:37:34;;;;;;;11.57;6.40;;;17.50;99.90;;;;;;5092781;28;20257;-64
2021/07/28 07:40:01;;;;;;;12.17;7.23;;;17.60;1.00;;;;;;5092646;28;20232;-63
2021/07/28 07:42:30;;;;;;;10.13;7.83;;;17.60;57.40;;;;;;5093008;28;20204;-64
2021/07/28 07:44:58;;;;;;;8.83;7.17;;;17.60;1.00;;;;;;5092313;28;20227;-64
2021/07/28 07:47:25;;;;;;;8.83;7.13;;;17.80;38.50;;;;;;5092703;28;20239;-64
2021/07/28 07:49:51;;;;;;;9.73;7.07;;;17.90;99.90;;;;;;5092439;28;20235;-64
2021/07/28 07:52:18;;;;;;;9.53;7.60;;;18.00;1.00;;;;;;5092535;28;20234;-64
2021/07/28 07:54:45;;;;;;;9.03;7.23;;;18.10;99.90;;;;;;5092555;28;20219;-64
2021/07/28 07:57:11;;;;;;;8.93;7.40;;;18.10;1.00;;;;;;5092681;28;20672;-64
2021/07/28 07:59:39;;;;;;;10.93;6.93;;;18.30;1.00;;;;;;5092900;28;20231;-64
2021/07/28 08:02:06;;;;;;;9.03;6.70;;;18.40;99.90;;;;;;5092653;28;20204;-64
2021/07/28 08:04:33;;;;;;;7.87;6.43;;;18.70;1.00;;;;;;5091851;28;20221;-65
2021/07/28 08:06:59;;;;;;;7.77;6.73;;;18.80;99.90;;;;;;5091432;28;20795;-64
2021/07/28 08:09:26;;;;;;;7.67;5.93;;;18.90;1.00;;;;;;5091542;28;20224;-63
2021/07/28 08:11:54;;;;;;;7.77;5.80;;;19.10;1.00;;;;;;5092524;28;20208;-63
2021/07/28 08:14:20;;;;;;;7.93;5.80;;;19.20;99.90;;;;;;5092011;28;20283;-63
2021/07/28 08:16:48;;;;;;;8.37;5.87;;;19.30;49.70;;;;;;5092498;28;20222;-62
2021/07/28 08:19:15;;;;;;;8.33;5.90;;;19.30;49.90;;;;;;5092275;28;20232;-62
2021/07/28 08:21:42;;;;;;;7.97;6.23;;;19.10;99.90;;;;;;5092141;28;20241;-64
2021/07/28 08:24:09;;;;;;;8.23;6.50;;;19.10;1.00;;;;;;5092004;28;20204;-64
2021/07/28 08:26:36;;;;;;;8.17;6.10;;;19.00;14.90;;;;;;5092266;28;20208;-63
2021/07/28 08:29:02;;;;;;;8.83;6.33;;;18.80;99.90;;;;;;5092134;28;20225;-64
2021/07/28 08:31:29;;;;;;;10.23;7.70;;;18.70;1.00;;;;;;5093009;28;20212;-64
2021/07/28 08:33:57;;;;;;;10.50;7.27;;;18.50;99.90;;;;;;5091371;28;20253;-64
2021/07/28 08:36:23;;;;;;;10.03;6.80;;;18.50;1.00;;;;;;5092411;28;20211;-66
2021/07/28 08:38:50;;;;;;;12.47;8.00;;;18.20;1.00;;;;;;5098407;28;20265;-64
2021/07/28 08:41:19;;;;;;;9.20;7.23;;;18.20;99.90;;;;;;5096638;28;20204;-64
2021/07/28 08:43:50;;;;;;;7.87;6.83;;;18.10;1.00;;;;;;5092169;28;20295;-65
2021/07/28 08:46:18;;;;;;;10.13;7.73;;;17.90;99.90;;;;;;5100000;28;20271;-64
2021/07/28 08:48:47;;;;;;;10.10;7.97;;;17.70;99.90;;;;;;5100370;28;20228;-64
2021/07/28 08:51:15;;;;;;;10.97;6.97;;;17.60;1.00;;;;;;5096325;28;20647;-65
2021/07/28 08:53:42;;;;;;;9.03;6.67;;;17.40;1.00;;;;;;5091479;28;20219;-65
2021/07/28 08:56:10;;;;;;;10.50;6.50;;;17.40;99.90;;;;;;5091681;28;20200;-64
2021/07/28 08:58:38;;;;;;;7.93;6.37;;;17.40;99.90;;;;;;5091731;28;20231;-63
2021/07/28 09:01:05;;;;;;;10.90;6.67;;;17.40;1.00;;;;;;5091410;28;20261;-65
2021/07/28 09:03:32;;;;;;;7.90;5.50;;;17.40;1.00;;;;;;5091484;28;20201;-66
2021/07/28 09:06:01;;;;;;;7.17;5.03;;;17.50;1.00;;;;;;5091711;28;20259;-66
2021/07/28 09:08:30;;;;;;;7.27;5.13;;;17.60;99.90;;;;;;5091867;28;20598;-65
2021/07/28 09:10:58;;;;;;;8.03;5.77;;;17.70;1.00;;;;;;5091814;28;20192;-66
2021/07/28 09:13:32;;;;;;;5.93;4.53;;;17.80;99.90;;;;;;5091203;28;20812;-66
2021/07/28 09:16:02;;;;;;;7.37;4.73;;;17.90;99.90;;;;;;5091479;28;20661;-67
2021/07/28 09:18:37;;;;;;;7.57;5.10;;;17.90;1.00;;;;;;5091272;28;20760;-66
2021/07/28 09:21:05;;;;;;;10.20;6.30;;;17.90;1.00;;;;;;5090944;28;20226;-66
2021/07/28 09:23:42;;;;;;;8.93;5.73;;;18.20;99.90;;;;;;5090087;28;20577;-65
2021/07/28 09:26:33;;;;;;;7.23;5.50;;;18.40;99.90;;;;;;5091252;28;20220;-65
2021/07/28 09:29:09;;;;;;;8.93;6.10;;;18.50;99.90;;;;;;5091430;28;20228;-64
2021/07/28 09:31:38;;;;;;;8.50;6.20;;;18.40;1.00;;;;;;5091109;28;20239;-64
2021/07/28 09:34:27;;;;;;;9.00;6.63;;;18.60;99.90;;;;;;5091219;28;20212;-65
2021/07/28 09:36:55;;;;;;;7.30;5.77;;;18.90;1.00;;;;;;5091039;28;20211;-65
2021/07/28 09:39:27;;;;;;;8.60;6.23;;;19.10;99.90;;;;;;5091388;28;20277;-65
2021/07/28 09:41:55;;;;;;;7.40;5.73;;;19.20;99.90;;;;;;5091394;28;20584;-66
2021/07/28 09:44:26;;;;;;;7.57;6.40;;;19.40;1.00;;;;;;5090779;28;20415;-66
2021/07/28 09:47:08;;;;;;;8.43;6.50;;;19.40;1.00;;;;;;5091195;28;20208;-66
2021/07/28 09:49:35;;;;;;;6.90;5.57;;;19.60;6.50;;;;;;5091043;28;20232;-66
2021/07/28 09:52:17;;;;;;;7.97;5.90;;;19.80;1.00;;;;;;5092108;28;20204;-66
2021/07/28 09:54:46;;;;;;;6.67;5.60;;;19.90;99.90;;;;;;5093686;28;20287;-66
2021/07/28 09:57:15;;;;;;;10.17;6.50;;;20.00;99.90;;;;;;5094450;28;20204;-66
2021/07/28 09:59:45;;;;;;;7.00;5.50;;;20.20;99.90;;;;;;5094833;28;20263;-66
2021/07/28 10:02:15;;;;;;;9.20;5.87;;;20.20;99.90;;;;;;5095451;28;20300;-66
2021/07/28 10:04:47;;;;;;;8.37;5.60;;;20.20;99.90;;;;;;5094408;28;20440;-65
2021/07/28 10:07:16;;;;;;;7.00;5.10;;;20.20;99.90;;;;;;5096354;28;20208;-65
2021/07/28 10:09:51;;;;;;;7.97;4.93;;;20.10;99.90;;;;;;5096286;28;20235;-66
2021/07/28 10:12:18;;;;;;;6.97;4.97;;;20.20;99.90;;;;;;5095680;28;20236;-64
2021/07/28 10:14:46;;;;;;;5.93;4.53;;;20.50;99.90;;;;;;5094284;28;20208;-64
2021/07/28 10:17:13;;;;;;;7.27;4.30;;;20.80;99.90;;;;;;5094147;28;20734;-64
2021/07/28 10:19:40;;;;;;;5.57;3.90;;;21.00;99.90;;;;;;5094322;28;20262;-62
2021/07/28 10:22:07;;;;;;;4.30;3.77;;;21.20;1.00;;;;;;5094213;28;20291;-63
2021/07/28 10:24:34;;;;;;;6.40;3.80;;;21.20;10.90;;;;;;5093663;28;20212;-63
2021/07/28 10:27:03;;;;;;;5.07;3.80;;;21.10;1.00;;;;;;5094252;28;20244;-62
2021/07/28 10:29:30;;;;;;;5.40;3.60;;;20.90;1.00;;;;;;5094200;28;20227;-63
2021/07/28 10:31:57;;;;;;;4.63;3.20;;;20.70;1.00;;;;;;5094109;28;20212;-63
2021/07/28 10:34:26;;;;;;;5.47;3.47;;;20.70;1.00;;;;;;5093555;28;20215;-64
2021/07/28 10:36:54;;;;;;;4.93;3.50;;;20.80;1.00;;;;;;5093646;28;20200;-62
2021/07/28 10:39:41;;;;;;;6.63;3.70;;;20.60;1.00;;;;;;5094100;28;20279;-63
2021/07/28 10:42:11;;;;;;;6.63;3.20;;;20.40;1.00;;;;;;5093995;28;20200;-64
2021/07/28 10:45:06;;;;;;;6.50;3.50;;;20.20;1.00;;;;;;5093654;28;20205;-65
2021/07/28 10:47:40;;;;;;;5.20;3.40;;;20.10;1.00;;;;;;5057928;28;20265;-64
2021/07/28 10:50:09;;;;;;;5.60;3.53;;;20.20;1.00;;;;;;5093648;28;20255;-63
2021/07/28 10:52:41;;;;;;;6.17;3.30;;;20.20;1.00;;;;;;5094036;28;20200;-63
2021/07/28 10:55:15;;;;;;;5.30;3.83;;;20.50;1.00;;;;;;5093439;28;20207;-64
2021/07/28 10:58:23;;;;;;;6.37;3.70;;;20.70;1.00;;;;;;5093505;28;20298;-64
2021/07/28 11:00:54;;;;;;;4.50;3.50;;;21.20;1.00;;;;;;5093640;28;20550;-64
2021/07/28 11:03:28;;;;;;;7.80;3.80;;;21.40;1.00;;;;;;5093062;28;20204;-63
2021/07/28 11:06:17;;;;;;;8.20;3.50;;;21.50;1.00;;;;;;5093236;28;20700;-64
2021/07/28 11:08:44;;;;;;;5.40;3.40;;;21.40;1.00;;;;;;5093343;28;20319;-63
2021/07/28 11:11:19;;;;;;;5.30;3.20;;;21.40;1.00;;;;;;5093184;28;20573;-63
2021/07/28 11:13:46;;;;;;;5.50;3.10;;;21.50;1.00;;;;;;5093124;28;20579;-63
2021/07/28 11:16:16;;;;;;;3.73;2.80;;;21.50;99.90;;;;;;5093162;28;20207;-64
2021/07/28 11:18:44;;;;;;;4.20;3.13;;;21.70;1.00;;;;;;5092818;28;20256;-64
2021/07/28 11:21:12;;;;;;;7.23;3.37;;;21.80;1.00;;;;;;5093236;28;20242;-66
2021/07/28 11:23:45;;;;;;;4.47;2.60;;;22.00;1.00;;;;;;5092042;28;20208;-65
2021/07/28 11:26:19;;;;;;;3.30;2.63;;;22.30;99.90;;;;;;5092898;28;20230;-65
2021/07/28 11:28:46;;;;;;;5.27;2.80;;;22.40;99.90;;;;;;5092865;28;20708;-64
2021/07/28 11:31:15;;;;;;;3.60;2.93;;;22.40;99.90;;;;;;5092410;28;20226;-65
2021/07/28 11:33:42;;;;;;;3.00;2.50;;;22.30;99.90;;;;;;5092754;28;20559;-65
2021/07/28 11:36:09;;;;;;;5.03;2.50;;;22.50;99.90;;;;;;5092985;28;20253;-65
2021/07/28 11:38:37;;;;;;;5.50;2.80;;;22.60;99.90;;;;;;5092864;28;20731;-64
2021/07/28 11:41:06;;;;;;;4.17;2.40;;;22.40;99.90;;;;;;5092625;28;20204;-64
2021/07/28 11:43:35;;;;;;;6.10;2.60;;;22.30;99.90;;;;;;5092145;28;20231;-64
2021/07/28 11:46:03;;;;;;;3.80;2.20;;;22.40;99.90;;;;;;5092760;28;20232;-64
2021/07/28 11:48:33;;;;;;;3.00;2.30;;;22.60;99.90;;;;;;5092793;28;20270;-64
2021/07/28 11:51:01;;;;;;;5.20;2.23;;;22.70;99.90;;;;;;5092930;28;20291;-64
2021/07/28 11:53:28;;;;;;;6.60;2.20;;;22.60;99.90;;;;;;5092483;28;20633;-64
2021/07/28 11:55:56;;;;;;;2.37;2.07;;;22.50;99.90;;;;;;5092532;28;20200;-64
2021/07/28 11:58:22;;;;;;;3.43;2.33;;;22.40;99.90;;;;;;5092337;28;21021;-64
2021/07/28 12:00:50;;;;;;;6.73;4.23;;;22.50;99.90;;;;;;5092518;28;20566;-65
2021/07/28 12:03:27;;;;;;;3.77;2.30;;;22.50;99.90;;;;;;5092111;28;20624;-65
2021/07/28 12:06:00;;;;;;;3.57;2.00;;;22.60;99.90;;;;;;5092332;28;20247;-64
2021/07/28 12:08:34;;;;;;;3.37;2.30;;;22.60;99.90;;;;;;5091959;28;20227;-64
2021/07/28 12:11:05;;;;;;;2.93;2.07;;;22.60;99.90;;;;;;5092202;28;20211;-65
2021/07/28 12:13:43;;;;;;;3.13;2.30;;;22.70;99.90;;;;;;5091601;28;20603;-64
2021/07/28 12:16:09;;;;;;;3.23;2.20;;;22.90;99.90;;;;;;5092175;28;20211;-64
2021/07/28 12:18:40;;;;;;;3.27;2.30;;;23.20;99.90;;;;;;5092118;28;20634;-64
2021/07/28 12:21:08;;;;;;;3.17;2.07;;;23.20;99.90;;;;;;5091627;28;20236;-64
2021/07/28 12:23:35;;;;;;;3.40;2.27;;;22.90;99.90;;;;;;5091662;28;20273;-65
2021/07/28 12:26:02;;;;;;;4.07;2.50;;;22.70;99.90;;;;;;5091996;28;20224;-64
2021/07/28 12:28:47;;;;;;;5.43;2.20;;;22.10;99.90;;;;;;5091999;28;20220;-64
2021/07/28 12:31:25;;;;;;;5.80;3.57;;;21.80;99.90;;;;;;5091945;28;20806;-64
2021/07/28 12:33:54;;;;;;;4.17;3.07;;;21.90;99.90;;;;;;5090926;28;20208;-65
2021/07/28 12:36:28;;;;;;;4.10;2.23;;;22.10;99.90;;;;;;5091907;28;20258;-64
2021/07/28 12:38:55;;;;;;;6.47;2.00;;;22.30;99.90;;;;;;5091908;28;20311;-65
2021/07/28 12:41:23;;;;;;;5.37;2.20;;;22.50;99.90;;;;;;5091832;28;20212;-65
2021/07/28 12:43:51;;;;;;;2.63;1.80;;;22.70;99.90;;;;;;5091474;28;20212;-66
2021/07/28 12:46:17;;;;;;;4.63;2.00;;;22.90;99.90;;;;;;5091910;28;20309;-64
2021/07/28 12:48:44;;;;;;;6.67;2.43;;;22.90;99.90;;;;;;5091818;28;20236;-64